createdAt,value
2016-08-02T00:00:18.961Z,60.91
2016-08-02T00:01:18.988Z,60.91
2016-08-02T00:02:19.014Z,61.29
2016-08-02T00:03:19.041Z,60.91
2016-08-02T00:04:19.066Z,60.62
2016-08-02T00:05:19.099Z,61
2016-08-02T00:06:19.122Z,60.97
2016-08-02T00:07:19.152Z,61.26
2016-08-02T00:08:19.174Z,60.97
2016-08-02T00:09:19.200Z,60.97
2016-08-02T00:10:19.231Z,61.16
2016-08-02T00:11:19.256Z,61.07
2016-08-02T00:12:19.281Z,62.03
2016-08-02T00:13:19.307Z,61.94
2016-08-02T00:14:19.341Z,61.94
2016-08-02T00:15:20.068Z,61.46
2016-08-02T00:16:19.386Z,61.94
2016-08-02T00:17:19.421Z,62.23
2016-08-02T00:18:19.441Z,62.23
2016-08-02T00:19:20.175Z,61.46
2016-08-02T00:20:19.500Z,62.13
2016-08-02T00:21:19.519Z,61.65
2016-08-02T00:22:19.557Z,61.65
2016-08-02T00:23:19.580Z,62.13
2016-08-02T00:24:19.598Z,62.13
2016-08-02T00:25:19.623Z,62.03
2016-08-02T00:26:19.647Z,62.13
2016-08-02T00:27:19.674Z,61.94
2016-08-02T00:28:19.700Z,62.23
2016-08-02T00:29:19.729Z,61.55
2016-08-02T00:30:19.776Z,61.84
2016-08-02T00:31:19.788Z,62.23
2016-08-02T00:32:19.807Z,61.94
2016-08-02T00:33:19.839Z,61.55
2016-08-02T00:34:19.863Z,62.13
2016-08-02T00:35:19.898Z,61.74
2016-08-02T00:36:19.911Z,61.55
2016-08-02T00:37:19.963Z,61.26
2016-08-02T00:38:20.673Z,61.81
2016-08-02T00:39:20.004Z,61.74
2016-08-02T00:40:20.034Z,61.71
2016-08-02T00:41:20.047Z,62.03
2016-08-02T00:42:20.069Z,61.65
2016-08-02T00:43:20.806Z,61.94
2016-08-02T00:44:20.840Z,61.26
2016-08-02T00:45:20.156Z,61.74
2016-08-02T00:46:20.897Z,61.16
2016-08-02T00:47:20.219Z,61.52
2016-08-02T00:48:20.239Z,61.71
2016-08-02T00:49:20.254Z,61.61
2016-08-02T00:50:20.281Z,61.23
2016-08-02T00:51:21.016Z,61.81
2016-08-02T00:52:20.331Z,61.61
2016-08-02T00:53:20.360Z,61.33
2016-08-02T00:54:20.385Z,61.81
2016-08-02T00:55:21.123Z,61.91
2016-08-02T00:56:20.439Z,61.61
2016-08-02T00:57:20.462Z,61.61
2016-08-02T00:58:20.491Z,62.29
2016-08-02T00:59:20.516Z,61.71
2016-08-02T01:00:20.542Z,61.61
2016-08-02T01:01:21.278Z,61.81
2016-08-02T01:02:20.594Z,62
2016-08-02T01:03:20.620Z,61.91
2016-08-02T01:04:20.644Z,61.23
2016-08-02T01:05:20.673Z,61.61
2016-08-02T01:06:20.698Z,62.19
2016-08-02T01:07:20.725Z,61.71
2016-08-02T01:08:20.752Z,62.1
2016-08-02T01:09:20.778Z,62.48
2016-08-02T01:10:20.806Z,62.58
2016-08-02T01:11:20.829Z,62.1
2016-08-02T01:12:20.858Z,61.91
2016-08-02T01:13:20.883Z,62.68
2016-08-02T01:14:21.618Z,62.19
2016-08-02T01:15:21.644Z,62.29
2016-08-02T01:16:20.961Z,61.61
2016-08-02T01:17:20.998Z,62
2016-08-02T01:18:21.013Z,61.61
2016-08-02T01:19:21.039Z,62.1
2016-08-02T01:20:21.065Z,62
2016-08-02T01:21:21.091Z,62.19
2016-08-02T01:22:21.117Z,62.1
2016-08-02T01:23:21.143Z,62.29
2016-08-02T01:24:21.172Z,62.38
2016-08-02T01:25:21.201Z,62.1
2016-08-02T01:26:21.223Z,62.19
2016-08-02T01:27:21.248Z,62
2016-08-02T01:28:21.286Z,62
2016-08-02T01:29:22.008Z,62
2016-08-02T01:30:22.221Z,61.91
2016-08-02T01:31:21.351Z,61.61
2016-08-02T01:32:21.378Z,61.91
2016-08-02T01:33:22.345Z,61.91
2016-08-02T01:34:21.432Z,62.68
2016-08-02T01:35:21.456Z,62.1
2016-08-02T01:36:22.190Z,62.77
2016-08-02T01:37:22.216Z,63.06
2016-08-02T01:38:21.534Z,63.35
2016-08-02T01:39:21.558Z,63.64
2016-08-02T01:40:21.586Z,62.38
2016-08-02T01:41:21.722Z,62.96
2016-08-02T01:42:22.347Z,62.58
2016-08-02T01:43:21.665Z,62.77
2016-08-02T01:44:21.690Z,62.77
2016-08-02T01:45:21.718Z,62.48
2016-08-02T01:46:21.743Z,63.25
2016-08-02T01:47:21.772Z,62.38
2016-08-02T01:48:21.794Z,62.38
2016-08-02T01:49:21.827Z,62.68
2016-08-02T01:50:22.555Z,62.48
2016-08-02T01:51:21.873Z,62.68
2016-08-02T01:52:21.898Z,62.55
2016-08-02T01:53:21.924Z,62.45
2016-08-02T01:54:21.951Z,62.55
2016-08-02T01:55:21.977Z,62.35
2016-08-02T01:56:22.007Z,62.93
2016-08-02T01:57:22.031Z,63.02
2016-08-02T01:58:22.078Z,62.74
2016-08-02T01:59:22.192Z,62.64
2016-08-02T02:00:22.816Z,61.87
2016-08-02T02:01:22.132Z,61.49
2016-08-02T02:02:22.161Z,62.55
2016-08-02T02:03:22.188Z,62.55
2016-08-02T02:04:22.216Z,62.35
2016-08-02T02:05:22.244Z,62.55
2016-08-02T02:06:22.270Z,62.84
2016-08-02T02:07:22.291Z,62.74
2016-08-02T02:08:22.320Z,63.02
2016-08-02T02:09:22.342Z,63.89
2016-08-02T02:10:22.369Z,63.32
2016-08-02T02:11:22.394Z,63.79
2016-08-02T02:12:22.420Z,63.51
2016-08-02T02:13:22.446Z,64.18
2016-08-02T02:14:22.472Z,64.28
2016-08-02T02:15:22.498Z,63.99
2016-08-02T02:16:22.522Z,63.6
2016-08-02T02:17:22.550Z,62.64
2016-08-02T02:18:22.577Z,63.02
2016-08-02T02:19:23.312Z,63.32
2016-08-02T02:20:22.628Z,62.45
2016-08-02T02:21:22.657Z,62.55
2016-08-02T02:22:22.689Z,62.74
2016-08-02T02:23:22.704Z,63.12
2016-08-02T02:24:22.730Z,63.12
2016-08-02T02:25:22.759Z,62.64
2016-08-02T02:26:22.784Z,63.7
2016-08-02T02:27:22.809Z,63.79
2016-08-02T02:28:22.834Z,63.99
2016-08-02T02:29:23.585Z,62.64
2016-08-02T02:30:22.928Z,62.84
2016-08-02T02:31:22.912Z,62.45
2016-08-02T02:32:22.936Z,62.74
2016-08-02T02:33:22.964Z,62.64
2016-08-02T02:34:23.001Z,62.64
2016-08-02T02:35:23.015Z,63.7
2016-08-02T02:36:23.048Z,63.02
2016-08-02T02:37:23.091Z,63.22
2016-08-02T02:38:23.103Z,63.32
2016-08-02T02:39:23.121Z,63.12
2016-08-02T02:40:23.145Z,63.41
2016-08-02T02:41:23.170Z,63.79
2016-08-02T02:42:23.197Z,63.89
2016-08-02T02:43:24.952Z,62.74
2016-08-02T02:44:24.493Z,62.64
2016-08-02T02:45:23.325Z,62.45
2016-08-02T02:46:23.320Z,62.23
2016-08-02T02:47:23.331Z,62.45
2016-08-02T02:48:23.359Z,62.61
2016-08-02T02:49:23.378Z,62.61
2016-08-02T02:50:23.404Z,62.23
2016-08-02T02:51:23.430Z,62.99
2016-08-02T02:52:23.454Z,62.32
2016-08-02T02:53:23.487Z,62.52
2016-08-02T02:54:23.509Z,62.61
2016-08-02T02:55:23.531Z,62.99
2016-08-02T02:56:23.557Z,62.9
2016-08-02T02:57:23.583Z,62.9
2016-08-02T02:58:24.318Z,62.9
2016-08-02T02:59:24.572Z,62.32
2016-08-02T03:00:24.423Z,62.52
2016-08-02T03:01:24.826Z,63.19
2016-08-02T03:02:23.713Z,62.9
2016-08-02T03:03:23.752Z,63.19
2016-08-02T03:04:23.761Z,63.19
2016-08-02T03:05:23.791Z,62.99
2016-08-02T03:06:23.949Z,63.19
2016-08-02T03:07:23.890Z,63.67
2016-08-02T03:08:23.866Z,63.45
2016-08-02T03:09:23.892Z,63.35
2016-08-02T03:10:23.966Z,63.06
2016-08-02T03:11:24.076Z,63.25
2016-08-02T03:12:23.967Z,62.9
2016-08-02T03:13:23.992Z,62.68
2016-08-02T03:14:24.018Z,63.09
2016-08-02T03:15:24.187Z,63.09
2016-08-02T03:16:24.084Z,63.28
2016-08-02T03:17:24.095Z,63.16
2016-08-02T03:18:24.119Z,62.96
2016-08-02T03:19:24.146Z,63.09
2016-08-02T03:20:24.171Z,63.06
2016-08-02T03:21:24.198Z,62.9
2016-08-02T03:22:24.221Z,63.09
2016-08-02T03:23:24.962Z,62.87
2016-08-02T03:25:25.009Z,62.9
2016-08-02T03:26:24.324Z,62.9
2016-08-02T03:27:24.349Z,63.19
2016-08-02T03:28:24.423Z,62.9
2016-08-02T03:29:24.399Z,62.99
2016-08-02T03:30:25.228Z,62.99
2016-08-02T03:31:25.169Z,63.06
2016-08-02T03:32:24.475Z,62.39
2016-08-02T03:33:24.501Z,63.16
2016-08-02T03:34:24.550Z,62.77
2016-08-02T03:35:24.556Z,63.64
2016-08-02T03:36:25.291Z,62.77
2016-08-02T03:37:24.602Z,63.54
2016-08-02T03:38:24.629Z,63.45
2016-08-02T03:39:24.655Z,63.06
2016-08-02T03:40:24.687Z,62.96
2016-08-02T03:41:24.706Z,62.87
2016-08-02T03:42:25.440Z,62.77
2016-08-02T03:43:24.753Z,62.87
2016-08-02T03:44:24.783Z,63.16
2016-08-02T03:45:24.803Z,63.45
2016-08-02T03:46:24.830Z,62.87
2016-08-02T03:47:24.852Z,63.25
2016-08-02T03:48:24.890Z,62.96
2016-08-02T03:49:25.619Z,63.19
2016-08-02T03:50:24.931Z,63.73
2016-08-02T03:51:24.956Z,63.09
2016-08-02T03:52:24.980Z,63.16
2016-08-02T03:53:39.899Z,63.06
2016-08-02T03:54:25.033Z,62.32
2016-08-02T03:55:25.060Z,63.28
2016-08-02T03:56:25.083Z,62.42
2016-08-02T03:57:25.119Z,62.68
2016-08-02T03:58:25.843Z,63.16
2016-08-02T03:59:25.159Z,62.77
2016-08-02T04:00:25.182Z,62.81
2016-08-02T04:01:25.210Z,62.71
2016-08-02T04:02:25.235Z,63.19
2016-08-02T04:03:25.261Z,62.99
2016-08-02T04:04:25.286Z,62.9
2016-08-02T04:05:25.309Z,62.81
2016-08-02T04:06:25.336Z,62.19
2016-08-02T04:07:25.362Z,62.42
2016-08-02T04:08:26.099Z,62.61
2016-08-02T04:09:27.117Z,62.52
2016-08-02T04:10:25.646Z,62.61
2016-08-02T04:11:25.494Z,62.48
2016-08-02T04:12:26.228Z,62.19
2016-08-02T04:13:25.559Z,62.48
2016-08-02T04:14:26.267Z,62.52
2016-08-02T04:15:25.592Z,63.19
2016-08-02T04:16:25.606Z,62.32
2016-08-02T04:17:25.616Z,63.09
2016-08-02T04:18:25.645Z,62.32
2016-08-02T04:19:25.676Z,62.68
2016-08-02T04:20:25.693Z,62.58
2016-08-02T04:21:25.718Z,62.32
2016-08-02T04:22:25.745Z,62.48
2016-08-02T04:23:25.770Z,62.81
2016-08-02T04:24:25.934Z,62.81
2016-08-02T04:25:26.529Z,62.52
2016-08-02T04:26:25.847Z,62.48
2016-08-02T04:27:26.591Z,62.19
2016-08-02T04:28:25.895Z,62.61
2016-08-02T04:29:25.922Z,62.61
2016-08-02T04:30:26.660Z,62.48
2016-08-02T04:31:26.410Z,62.32
2016-08-02T04:32:25.999Z,62.52
2016-08-02T04:33:26.027Z,62.81
2016-08-02T04:34:26.051Z,62.42
2016-08-02T04:35:26.075Z,62.71
2016-08-02T04:36:26.112Z,63.09
2016-08-02T04:37:26.127Z,62.71
2016-08-02T04:38:26.153Z,62.42
2016-08-02T04:40:26.205Z,62.04
2016-08-02T04:41:26.227Z,62.52
2016-08-02T04:42:26.254Z,62.52
2016-08-02T04:43:26.280Z,62.52
2016-08-02T04:44:26.329Z,62.71
2016-08-02T04:45:26.329Z,61.55
2016-08-02T04:46:26.355Z,62.13
2016-08-02T04:47:26.381Z,62.61
2016-08-02T04:48:26.406Z,62.42
2016-08-02T04:49:26.432Z,62.64
2016-08-02T04:50:26.458Z,62.13
2016-08-02T04:51:26.490Z,62.04
2016-08-02T04:52:26.509Z,62.04
2016-08-02T04:53:26.533Z,61.84
2016-08-02T04:55:26.584Z,61.84
2016-08-02T04:56:26.611Z,61.94
2016-08-02T04:57:26.635Z,62.23
2016-08-02T04:58:27.374Z,62.04
2016-08-02T04:59:26.692Z,62.52
2016-08-02T05:00:26.716Z,62.52
2016-08-02T05:01:26.738Z,62.13
2016-08-02T05:02:26.764Z,62.52
2016-08-02T05:03:26.788Z,62.9
2016-08-02T05:04:26.814Z,62.26
2016-08-02T05:05:27.551Z,62.23
2016-08-02T05:06:26.865Z,62.32
2016-08-02T05:07:26.907Z,62.13
2016-08-02T05:08:26.919Z,61.46
2016-08-02T05:10:26.986Z,62.13
2016-08-02T05:11:26.994Z,61.94
2016-08-02T05:12:27.019Z,61.49
2016-08-02T05:13:27.046Z,62.13
2016-08-02T05:14:27.069Z,61.84
2016-08-02T05:15:27.094Z,62.07
2016-08-02T05:16:27.838Z,61.49
2016-08-02T05:17:27.146Z,61.58
2016-08-02T05:18:27.173Z,61.97
2016-08-02T05:19:27.197Z,61.2
2016-08-02T05:20:27.223Z,61.97
2016-08-02T05:21:27.248Z,61.68
2016-08-02T05:22:27.274Z,61.78
2016-08-02T05:23:27.298Z,61.97
2016-08-02T05:25:27.350Z,61.87
2016-08-02T05:26:27.377Z,61.87
2016-08-02T05:27:27.401Z,61.58
2016-08-02T05:28:27.427Z,60.82
2016-08-02T05:29:27.454Z,61.4
2016-08-02T05:30:27.482Z,61.11
2016-08-02T05:31:27.507Z,61.01
2016-08-02T05:32:27.532Z,61.11
2016-08-02T05:33:28.273Z,61.2
2016-08-02T05:34:28.309Z,60.72
2016-08-02T05:35:28.317Z,61.2
2016-08-02T05:36:27.634Z,61.2
2016-08-02T05:37:27.660Z,61.97
2016-08-02T05:38:27.697Z,61.58
2016-08-02T05:40:27.738Z,60.82
2016-08-02T05:41:27.763Z,61.78
2016-08-02T05:42:27.791Z,61.97
2016-08-02T05:43:27.828Z,62.26
2016-08-02T05:44:28.549Z,60.63
2016-08-02T05:45:27.868Z,61.3
2016-08-02T05:46:27.899Z,61.2
2016-08-02T05:47:27.924Z,61.2
2016-08-02T05:48:27.944Z,61.68
2016-08-02T05:49:27.971Z,61.01
2016-08-02T05:50:27.998Z,61.11
2016-08-02T05:51:28.022Z,61.3
2016-08-02T05:52:28.049Z,60.82
2016-08-02T05:53:28.075Z,60.72
2016-08-02T05:55:28.127Z,60.63
2016-08-02T05:56:28.151Z,60.72
2016-08-02T05:57:28.177Z,60.91
2016-08-02T05:58:28.205Z,61.04
2016-08-02T05:59:28.230Z,61.33
2016-08-02T06:00:28.306Z,60.94
2016-08-02T06:01:28.283Z,60.56
2016-08-02T06:02:28.313Z,59.99
2016-08-02T06:03:28.344Z,59.69
2016-08-02T06:04:28.359Z,59.79
2016-08-02T06:05:28.389Z,59.79
2016-08-02T06:06:28.411Z,59.69
2016-08-02T06:07:28.439Z,59.89
2016-08-02T06:08:28.464Z,59.6
2016-08-02T06:10:28.516Z,59.41
2016-08-02T06:11:28.561Z,59.89
2016-08-02T06:12:28.572Z,60.39
2016-08-02T06:13:28.594Z,59.72
2016-08-02T06:14:28.625Z,59.24
2016-08-02T06:15:28.650Z,58.95
2016-08-02T06:16:28.675Z,58.86
2016-08-02T06:17:28.702Z,58.86
2016-08-02T06:18:28.734Z,58.95
2016-08-02T06:19:29.462Z,59.05
2016-08-02T06:20:28.777Z,58.4
2016-08-02T06:21:28.808Z,58.79
2016-08-02T06:22:28.832Z,58.31
2016-08-02T06:23:28.861Z,57.92
2016-08-02T06:25:28.911Z,57.83
2016-08-02T06:26:28.937Z,57.64
2016-08-02T06:27:28.966Z,57.83
2016-08-02T06:28:28.991Z,58.12
2016-08-02T06:29:29.019Z,57.73
2016-08-02T06:30:29.045Z,57.83
2016-08-02T06:31:29.087Z,58.89
2016-08-02T06:32:29.100Z,57.73
2016-08-02T06:33:29.130Z,57.92
2016-08-02T06:34:29.194Z,57.73
2016-08-02T06:35:29.179Z,57.45
2016-08-02T06:36:29.203Z,57.67
2016-08-02T06:37:29.229Z,57.57
2016-08-02T06:38:29.257Z,56.99
2016-08-02T06:40:29.335Z,56.7
2016-08-02T06:41:29.336Z,57.09
2016-08-02T06:42:30.076Z,57.09
2016-08-02T06:43:29.391Z,56.51
2016-08-02T06:44:29.415Z,56.6
2016-08-02T06:45:29.443Z,56.32
2016-08-02T06:46:29.472Z,56.32
2016-08-02T06:47:29.497Z,56.12
2016-08-02T06:48:29.530Z,56.22
2016-08-02T06:49:29.556Z,56.6
2016-08-02T06:50:29.578Z,57.86
2016-08-02T06:51:29.606Z,57.18
2016-08-02T06:52:29.632Z,57.47
2016-08-02T06:53:29.658Z,57.18
2016-08-02T06:54:29.685Z,57.18
2016-08-02T06:55:29.710Z,56.99
2016-08-02T06:56:29.738Z,57.09
2016-08-02T06:57:29.767Z,57.67
2016-08-02T06:58:30.514Z,57.47
2016-08-02T06:59:29.825Z,57.76
2016-08-02T07:00:29.899Z,57.37
2016-08-02T07:01:29.875Z,57.67
2016-08-02T07:02:29.898Z,57.47
2016-08-02T07:03:29.927Z,57.86
2016-08-02T07:04:29.971Z,57.57
2016-08-02T07:05:29.980Z,57.86
2016-08-02T07:06:30.723Z,57.6
2016-08-02T07:07:30.035Z,57.98
2016-08-02T07:08:30.065Z,57.6
2016-08-02T07:09:30.088Z,57.12
2016-08-02T07:10:30.120Z,57.79
2016-08-02T07:11:30.142Z,57.89
2016-08-02T07:12:30.168Z,57.89
2016-08-02T07:13:30.909Z,57.4
2016-08-02T07:14:30.234Z,56.44
2016-08-02T07:15:30.257Z,56.92
2016-08-02T07:16:30.277Z,56.73
2016-08-02T07:17:30.305Z,56.44
2016-08-02T07:18:30.332Z,56.47
2016-08-02T07:19:30.356Z,57.05
2016-08-02T07:20:30.385Z,56.47
2016-08-02T07:21:30.413Z,56.18
2016-08-02T07:22:30.444Z,55.7
2016-08-02T07:23:30.474Z,56.18
2016-08-02T07:24:30.495Z,56.47
2016-08-02T07:25:31.247Z,57.72
2016-08-02T07:26:31.258Z,57.14
2016-08-02T07:27:30.583Z,56.37
2016-08-02T07:28:30.610Z,55.99
2016-08-02T07:29:30.633Z,55.79
2016-08-02T07:30:30.660Z,55.6
2016-08-02T07:31:30.686Z,55.79
2016-08-02T07:32:31.431Z,55.99
2016-08-02T07:33:30.741Z,56.37
2016-08-02T07:34:30.767Z,56.09
2016-08-02T07:35:30.797Z,56.27
2016-08-02T07:36:30.821Z,56.57
2016-08-02T07:37:31.586Z,55.99
2016-08-02T07:38:30.886Z,56.01
2016-08-02T07:39:30.908Z,56.01
2016-08-02T07:40:30.934Z,56.01
2016-08-02T07:41:30.960Z,55.63
2016-08-02T07:42:30.997Z,55.94
2016-08-02T07:43:31.015Z,55.85
2016-08-02T07:44:31.039Z,55.66
2016-08-02T07:45:31.779Z,56.04
2016-08-02T07:46:31.096Z,54.98
2016-08-02T07:47:31.134Z,54.6
2016-08-02T07:48:31.149Z,55.1
2016-08-02T07:49:31.180Z,54.88
2016-08-02T07:50:31.211Z,54.33
2016-08-02T07:51:31.239Z,54.24
2016-08-02T07:52:31.263Z,53.66
2016-08-02T07:53:31.312Z,54.62
2016-08-02T07:54:31.332Z,54.53
2016-08-02T07:55:32.059Z,54.53
2016-08-02T07:56:31.384Z,53.66
2016-08-02T07:57:31.409Z,53.56
2016-08-02T07:58:31.452Z,52.53
2016-08-02T07:59:31.468Z,51.07
2016-08-02T08:00:31.546Z,50.69
2016-08-02T08:01:31.517Z,50.21
2016-08-02T08:02:31.558Z,49.92
2016-08-02T08:03:31.602Z,49.53
2016-08-02T08:04:31.603Z,50.98
2016-08-02T08:05:31.647Z,52.62
2016-08-02T08:06:31.661Z,51.75
2016-08-02T08:07:31.700Z,51.27
2016-08-02T08:08:31.724Z,50.91
2016-08-02T08:09:31.746Z,49.46
2016-08-02T08:10:31.785Z,49.85
2016-08-02T08:11:32.520Z,50.33
2016-08-02T08:12:31.831Z,50.13
2016-08-02T08:13:31.865Z,49.07
2016-08-02T08:14:31.887Z,49.07
2016-08-02T08:15:31.923Z,49.85
2016-08-02T08:16:31.947Z,50.13
2016-08-02T08:17:31.984Z,50.81
2016-08-02T08:18:32.021Z,50.52
2016-08-02T08:19:32.033Z,50.07
2016-08-02T08:20:32.064Z,48.81
2016-08-02T08:21:32.086Z,48.61
2016-08-02T08:22:32.823Z,48.81
2016-08-02T08:23:32.147Z,49.1
2016-08-02T08:24:32.174Z,48.52
2016-08-02T08:25:32.205Z,49.19
2016-08-02T08:26:32.238Z,49.39
2016-08-02T08:27:32.263Z,48.81
2016-08-02T08:28:32.998Z,49
2016-08-02T08:29:32.317Z,49.77
2016-08-02T08:30:32.347Z,49.68
2016-08-02T08:31:32.379Z,49.9
2016-08-02T08:32:32.404Z,49.87
2016-08-02T08:33:32.435Z,49.99
2016-08-02T08:34:32.469Z,50.57
2016-08-02T08:35:33.204Z,48.93
2016-08-02T08:36:32.520Z,46.8
2016-08-02T08:37:32.552Z,46.42
2016-08-02T08:38:32.578Z,45.54
2016-08-02T08:39:32.611Z,46.03
2016-08-02T08:40:32.637Z,46.7
2016-08-02T08:41:32.671Z,45.83
2016-08-02T08:42:32.697Z,46.8
2016-08-02T08:43:32.727Z,46.7
2016-08-02T08:44:32.776Z,48.54
2016-08-02T08:45:32.794Z,47.86
2016-08-02T08:46:32.813Z,49.99
2016-08-02T08:47:32.844Z,50.67
2016-08-02T08:48:32.871Z,50.96
2016-08-02T08:49:32.902Z,50.86
2016-08-02T08:50:32.930Z,45.54
2016-08-02T08:51:32.991Z,45.45
2016-08-02T08:52:32.996Z,45.54
2016-08-02T08:53:33.019Z,45.45
2016-08-02T08:54:33.759Z,45.37
2016-08-02T08:55:33.078Z,45.47
2016-08-02T08:56:33.107Z,46.83
2016-08-02T08:57:33.846Z,46.73
2016-08-02T08:58:33.166Z,46.25
2016-08-02T08:59:33.198Z,44.89
2016-08-02T09:00:33.225Z,45.86
2016-08-02T09:01:33.254Z,45.47
2016-08-02T09:02:33.993Z,44.31
2016-08-02T09:03:33.313Z,44.7
2016-08-02T09:04:33.348Z,45.28
2016-08-02T09:05:33.371Z,46.63
2016-08-02T09:06:33.402Z,44.43
2016-08-02T09:07:33.433Z,44.81
2016-08-02T09:08:33.463Z,44.98
2016-08-02T09:09:33.492Z,44.31
2016-08-02T09:10:33.521Z,44.5
2016-08-02T09:11:33.550Z,46.15
2016-08-02T09:12:33.581Z,45.57
2016-08-02T09:13:33.608Z,45.66
2016-08-02T09:14:34.353Z,46.44
2016-08-02T09:15:33.666Z,47.41
2016-08-02T09:16:33.702Z,47.6
2016-08-02T09:17:33.727Z,46.83
2016-08-02T09:18:33.757Z,45.57
2016-08-02T09:19:33.786Z,45.28
2016-08-02T09:20:33.818Z,45.57
2016-08-02T09:21:33.844Z,44.89
2016-08-02T09:22:33.877Z,44.31
2016-08-02T09:23:33.909Z,44.02
2016-08-02T09:24:33.934Z,45.76
2016-08-02T09:25:33.962Z,45.66
2016-08-02T09:26:33.991Z,45.08
2016-08-02T09:27:34.021Z,45.4
2016-08-02T09:28:34.050Z,47.62
2016-08-02T09:29:34.080Z,46.75
2016-08-02T09:30:34.138Z,47.99
2016-08-02T09:31:34.140Z,46.36
2016-08-02T09:32:34.879Z,46.66
2016-08-02T09:33:34.204Z,44.53
2016-08-02T09:34:34.228Z,43.27
2016-08-02T09:35:34.257Z,42.78
2016-08-02T09:36:34.330Z,42.47
2016-08-02T09:37:34.323Z,42.97
2016-08-02T09:38:34.347Z,42.96
2016-08-02T09:39:34.376Z,44.21
2016-08-02T09:40:34.413Z,44.04
2016-08-02T09:41:35.158Z,44.12
2016-08-02T09:42:34.477Z,44.53
2016-08-02T09:43:34.503Z,44.98
2016-08-02T09:44:34.527Z,44.53
2016-08-02T09:45:34.555Z,42.37
2016-08-02T09:46:34.585Z,42.08
2016-08-02T09:47:35.362Z,42.76
2016-08-02T09:48:34.659Z,43.15
2016-08-02T09:49:34.678Z,43.73
2016-08-02T09:50:34.701Z,43.73
2016-08-02T09:51:34.732Z,45.2
2016-08-02T09:52:34.764Z,45.86
2016-08-02T09:53:34.793Z,45.49
2016-08-02T09:54:34.829Z,46.08
2016-08-02T09:55:34.851Z,45.78
2016-08-02T09:56:34.899Z,45.49
2016-08-02T09:57:34.911Z,44.43
2016-08-02T09:58:34.942Z,44.04
2016-08-02T09:59:34.970Z,45.2
2016-08-02T10:00:35.000Z,44.81
2016-08-02T10:01:35.029Z,45.01
2016-08-02T10:02:35.771Z,45.3
2016-08-02T10:03:35.090Z,44.33
2016-08-02T10:04:35.118Z,44.43
2016-08-02T10:05:35.157Z,44.33
2016-08-02T10:06:35.177Z,45.2
2016-08-02T10:07:35.925Z,44.91
2016-08-02T10:08:35.958Z,44.53
2016-08-02T10:09:35.978Z,45.2
2016-08-02T10:10:35.296Z,45.42
2016-08-02T10:11:35.326Z,45.61
2016-08-02T10:12:35.360Z,45.71
2016-08-02T10:13:35.388Z,44.35
2016-08-02T10:14:35.415Z,44.35
2016-08-02T10:15:35.443Z,44.64
2016-08-02T10:16:36.190Z,45.71
2016-08-02T10:17:36.218Z,45.81
2016-08-02T10:18:35.537Z,45.51
2016-08-02T10:19:35.567Z,44.64
2016-08-02T10:20:35.601Z,45.42
2016-08-02T10:21:35.628Z,45.81
2016-08-02T10:22:35.654Z,45.03
2016-08-02T10:23:35.684Z,44.76
2016-08-02T10:24:35.715Z,44.37
2016-08-02T10:25:35.745Z,43.41
2016-08-02T10:26:35.778Z,42.34
2016-08-02T10:27:35.806Z,43.41
2016-08-02T10:28:35.837Z,42.44
2016-08-02T10:29:36.577Z,41.17
2016-08-02T10:30:35.901Z,41.17
2016-08-02T10:31:35.927Z,43.12
2016-08-02T10:32:35.957Z,44.27
2016-08-02T10:33:35.985Z,44.27
2016-08-02T10:34:36.014Z,42.63
2016-08-02T10:35:36.046Z,41.47
2016-08-02T10:36:36.079Z,40.31
2016-08-02T10:37:36.111Z,40.4
2016-08-02T10:38:36.146Z,40.99
2016-08-02T10:39:36.166Z,40.69
2016-08-02T10:40:36.202Z,40.89
2016-08-02T10:41:36.232Z,42.44
2016-08-02T10:42:36.259Z,43.02
2016-08-02T10:43:36.306Z,42.14
2016-08-02T10:44:36.319Z,41.37
2016-08-02T10:45:36.349Z,40.52
2016-08-02T10:46:36.393Z,42.54
2016-08-02T10:47:36.412Z,43.41
2016-08-02T10:48:36.440Z,42.46
2016-08-02T10:49:36.472Z,42.75
2016-08-02T10:50:36.500Z,44.01
2016-08-02T10:51:36.531Z,41.3
2016-08-02T10:52:36.560Z,40.71
2016-08-02T10:53:36.600Z,40.33
2016-08-02T10:54:36.636Z,41
2016-08-02T10:55:37.363Z,40.33
2016-08-02T10:56:36.681Z,41.3
2016-08-02T10:57:37.431Z,40.71
2016-08-02T10:58:37.454Z,39.45
2016-08-02T10:59:36.778Z,38.58
2016-08-02T11:00:36.821Z,39.26
2016-08-02T11:01:36.835Z,41
2016-08-02T11:02:36.990Z,41.88
2016-08-02T11:03:36.922Z,42.07
2016-08-02T11:04:37.688Z,40.71
2016-08-02T11:05:36.976Z,38.68
2016-08-02T11:06:36.998Z,38.87
2016-08-02T11:07:37.894Z,38.68
2016-08-02T11:08:37.954Z,38.78
2016-08-02T11:09:37.080Z,38.19
2016-08-02T11:10:37.125Z,38.48
2016-08-02T11:11:37.139Z,39.45
2016-08-02T11:12:37.986Z,40.61
2016-08-02T11:13:37.204Z,40.61
2016-08-02T11:14:37.237Z,40.42
2016-08-02T11:15:37.265Z,39.95
2016-08-02T11:16:37.310Z,38.31
2016-08-02T11:17:37.322Z,38.87
2016-08-02T11:18:37.357Z,38.96
2016-08-02T11:19:37.391Z,41
2016-08-02T11:20:37.414Z,40.34
2016-08-02T11:21:37.448Z,40.05
2016-08-02T11:22:38.191Z,41.78
2016-08-02T11:23:37.510Z,43.26
2016-08-02T11:24:38.252Z,45.39
2016-08-02T11:26:37.647Z,41.99
2016-08-02T11:27:38.391Z,42.29
2016-08-02T11:28:38.370Z,42.09
2016-08-02T11:29:38.409Z,41.02
2016-08-02T11:30:37.723Z,40.15
2016-08-02T11:31:37.753Z,40.75
2016-08-02T11:32:37.795Z,40.44
2016-08-02T11:33:37.822Z,39.01
2016-08-02T11:34:37.845Z,38.71
2016-08-02T11:35:37.877Z,39.29
2016-08-02T11:36:37.908Z,38.62
2016-08-02T11:37:37.940Z,37.74
2016-08-02T11:38:38.088Z,37.55
2016-08-02T11:39:38.005Z,38.12
2016-08-02T11:41:38.061Z,38.62
2016-08-02T11:42:38.092Z,36.87
2016-08-02T11:43:38.145Z,38.04
2016-08-02T11:44:38.157Z,37.07
2016-08-02T11:45:38.191Z,37.07
2016-08-02T11:46:38.219Z,36.27
2016-08-02T11:47:38.254Z,36.29
2016-08-02T11:48:38.282Z,36.36
2016-08-02T11:49:38.309Z,36.46
2016-08-02T11:50:38.357Z,35.8
2016-08-02T11:51:38.377Z,36.18
2016-08-02T11:52:38.404Z,35.49
2016-08-02T11:53:38.434Z,35.98
2016-08-02T11:54:38.481Z,35.49
2016-08-02T11:56:38.525Z,36.27
2016-08-02T11:57:38.558Z,36.66
2016-08-02T11:58:38.592Z,36.36
2016-08-02T11:59:38.666Z,36.18
2016-08-02T12:00:38.653Z,36.27
2016-08-02T12:01:39.390Z,36.36
2016-08-02T12:02:38.713Z,37.73
2016-08-02T12:03:38.742Z,37.34
2016-08-02T12:04:38.775Z,37.51
2016-08-02T12:05:38.802Z,37.32
2016-08-02T12:06:38.835Z,36.64
2016-08-02T12:07:38.889Z,37.03
2016-08-02T12:08:38.903Z,35.96
2016-08-02T12:09:38.926Z,37.32
2016-08-02T12:10:39.666Z,37.41
2016-08-02T12:11:38.987Z,37.61
2016-08-02T12:12:39.020Z,36.74
2016-08-02T12:13:39.052Z,38.12
2016-08-02T12:14:39.082Z,38.68
2016-08-02T12:15:39.111Z,38
2016-08-02T12:16:39.419Z,38.29
2016-08-02T12:17:39.415Z,39.74
2016-08-02T12:18:39.210Z,38.29
2016-08-02T12:19:39.377Z,38.48
2016-08-02T12:20:39.301Z,40.64
2016-08-02T12:21:40.197Z,41.49
2016-08-02T12:22:40.034Z,40.52
2016-08-02T12:23:39.364Z,40.92
2016-08-02T12:24:39.387Z,41.31
2016-08-02T12:25:40.143Z,40.25
2016-08-02T12:26:40.155Z,41.51
2016-08-02T12:27:39.479Z,40.64
2016-08-02T12:28:39.511Z,39.47
2016-08-02T12:29:39.564Z,38.79
2016-08-02T12:30:39.572Z,38.7
2016-08-02T12:31:39.602Z,39.47
2016-08-02T12:32:39.637Z,41.43
2016-08-02T12:33:40.384Z,39.78
2016-08-02T12:34:39.692Z,38.7
2016-08-02T12:35:39.724Z,38.91
2016-08-02T12:36:39.757Z,39.47
2016-08-02T12:37:39.793Z,40.26
2016-08-02T12:38:39.817Z,40.36
2016-08-02T12:39:39.865Z,41.05
2016-08-02T12:40:39.879Z,41.63
2016-08-02T12:41:39.911Z,40.85
2016-08-02T12:42:40.731Z,40.85
2016-08-02T12:43:39.976Z,41.82
2016-08-02T12:44:40.137Z,42.21
2016-08-02T12:45:40.754Z,39.88
2016-08-02T12:46:40.068Z,39.78
2016-08-02T12:47:40.136Z,38.99
2016-08-02T12:48:40.128Z,39.39
2016-08-02T12:49:40.159Z,39.11
2016-08-02T12:50:40.199Z,37.94
2016-08-02T12:51:40.223Z,38.32
2016-08-02T12:52:40.254Z,38.4
2016-08-02T12:53:40.280Z,38.7
2016-08-02T12:54:40.316Z,38.89
2016-08-02T12:55:40.345Z,39.49
2016-08-02T12:56:41.089Z,39.01
2016-08-02T12:57:40.879Z,39.39
2016-08-02T12:58:40.437Z,39.59
2016-08-02T12:59:40.523Z,39.18
2016-08-02T13:00:40.510Z,39.37
2016-08-02T13:01:40.532Z,39.47
2016-08-02T13:02:40.566Z,39.01
2016-08-02T13:03:40.619Z,38.89
2016-08-02T13:04:41.482Z,38.91
2016-08-02T13:05:40.658Z,38.42
2016-08-02T13:06:40.697Z,38.4
2016-08-02T13:07:41.428Z,38.81
2016-08-02T13:08:40.749Z,38.91